sensor_id;sensor_type;location;lat;lon;timestamp;temperature;humidity
3614;DHT22;1821;50.936;6.854;2023-07-16T00:00:20;20.10;99.90
3614;DHT22;1821;50.936;6.854;2023-07-16T00:01:02;20.10;99.90
3614;DHT22;1821;50.936;6.854;2023-07-16T00:01:44;20.10;99.90
3614;DHT22;1821;50.936;6.854;2023-07-16T00:02:26;20.10;99.90
3614;DHT22;1821;50.936;6.854;2023-07-16T00:03:08;20.20;99.90
3614;DHT22;1821;50.936;6.854;2023-07-16T00:03:50;20.10;99.90
3614;DHT22;1821;50.936;6.854;2023-07-16T00:04:32;20.20;99.90
3614;DHT22;1821;50.936;6.854;2023-07-16T00:05:14;20.10;99.90
3614;DHT22;1821;50.936;6.854;2023-07-16T00:05:57;19.90;99.90
3614;DHT22;1821;50.936;6.854;2023-07-16T00:06:39;20.10;99.90
3614;DHT22;1821;50.936;6.854;2023-07-16T00:07:21;20.10;99.90
3614;DHT22;1821;50.936;6.854;2023-07-16T00:08:03;20.00;99.90
3614;DHT22;1821;50.936;6.854;2023-07-16T00:08:45;19.90;99.90
3614;DHT22;1821;50.936;6.854;2023-07-16T00:09:27;19.90;99.90
3614;DHT22;1821;50.936;6.854;2023-07-16T00:10:09;19.90;99.90
3614;DHT22;1821;50.936;6.854;2023-07-16T00:10:51;19.90;99.90
3614;DHT22;1821;50.936;6.854;2023-07-16T00:11:33;19.80;99.90
3614;DHT22;1821;50.936;6.854;2023-07-16T00:12:15;19.80;99.90
3614;DHT22;1821;50.936;6.854;2023-07-16T00:12:57;19.80;99.90
3614;DHT22;1821;50.936;6.854;2023-07-16T00:13:38;19.80;99.90
3614;DHT22;1821;50.936;6.854;2023-07-16T00:14:23;19.70;99.90
3614;DHT22;1821;50.936;6.854;2023-07-16T00:15:05;19.80;99.90
3614;DHT22;1821;50.936;6.854;2023-07-16T00:15:48;20.00;99.90
3614;DHT22;1821;50.936;6.854;2023-07-16T00:16:30;19.70;99.90
3614;DHT22;1821;50.936;6.854;2023-07-16T00:17:12;19.70;99.90
3614;DHT22;1821;50.936;6.854;2023-07-16T00:17:54;19.70;99.90
3614;DHT22;1821;50.936;6.854;2023-07-16T00:18:36;19.70;99.90
3614;DHT22;1821;50.936;6.854;2023-07-16T00:19:21;19.70;99.90
3614;DHT22;1821;50.936;6.854;2023-07-16T00:20:03;19.60;99.90
3614;DHT22;1821;50.936;6.854;2023-07-16T00:20:47;20.10;99.90
3614;DHT22;1821;50.936;6.854;2023-07-16T00:21:29;19.60;99.90
3614;DHT22;1821;50.936;6.854;2023-07-16T00:22:12;19.60;99.90
3614;DHT22;1821;50.936;6.854;2023-07-16T00:22:54;19.50;99.90
3614;DHT22;1821;50.936;6.854;2023-07-16T00:23:36;19.50;99.90
3614;DHT22;1821;50.936;6.854;2023-07-16T00:24:21;19.40;99.90
3614;DHT22;1821;50.936;6.854;2023-07-16T00:25:03;19.40;99.90
3614;DHT22;1821;50.936;6.854;2023-07-16T00:25:45;19.40;99.90
3614;DHT22;1821;50.936;6.854;2023-07-16T00:26:27;19.40;99.90
3614;DHT22;1821;50.936;6.854;2023-07-16T00:27:09;19.40;99.90
3614;DHT22;1821;50.936;6.854;2023-07-16T00:27:52;19.30;99.90
3614;DHT22;1821;50.936;6.854;2023-07-16T00:28:34;19.60;99.90
3614;DHT22;1821;50.936;6.854;2023-07-16T00:29:16;19.30;99.90
3614;DHT22;1821;50.936;6.854;2023-07-16T00:29:58;19.30;99.90
3614;DHT22;1821;50.936;6.854;2023-07-16T00:30:43;19.30;99.90
3614;DHT22;1821;50.936;6.854;2023-07-16T00:31:25;19.30;99.90
3614;DHT22;1821;50.936;6.854;2023-07-16T00:32:07;19.30;99.90
3614;DHT22;1821;50.936;6.854;2023-07-16T00:32:49;19.30;99.90
3614;DHT22;1821;50.936;6.854;2023-07-16T00:33:31;19.30;99.90
3614;DHT22;1821;50.936;6.854;2023-07-16T00:34:13;19.30;99.90
3614;DHT22;1821;50.936;6.854;2023-07-16T00:34:55;19.30;99.90
3614;DHT22;1821;50.936;6.854;2023-07-16T00:35:37;19.30;99.90
3614;DHT22;1821;50.936;6.854;2023-07-16T00:36:19;19.30;99.90
3614;DHT22;1821;50.936;6.854;2023-07-16T00:37:03;19.30;99.90
3614;DHT22;1821;50.936;6.854;2023-07-16T00:37:45;19.20;99.90
3614;DHT22;1821;50.936;6.854;2023-07-16T00:38:28;19.30;99.90
3614;DHT22;1821;50.936;6.854;2023-07-16T00:39:09;19.30;99.90
3614;DHT22;1821;50.936;6.854;2023-07-16T00:39:52;19.40;99.90
3614;DHT22;1821;50.936;6.854;2023-07-16T00:40:34;19.40;99.90
3614;DHT22;1821;50.936;6.854;2023-07-16T00:41:17;19.40;99.90
3614;DHT22;1821;50.936;6.854;2023-07-16T00:42:02;19.30;99.90
3614;DHT22;1821;50.936;6.854;2023-07-16T00:42:46;19.30;99.90
3614;DHT22;1821;50.936;6.854;2023-07-16T00:43:28;19.30;99.90
3614;DHT22;1821;50.936;6.854;2023-07-16T00:44:10;19.30;99.90
3614;DHT22;1821;50.936;6.854;2023-07-16T00:44:52;19.40;99.90
3614;DHT22;1821;50.936;6.854;2023-07-16T00:45:34;19.40;99.90
3614;DHT22;1821;50.936;6.854;2023-07-16T00:46:16;19.40;99.90
3614;DHT22;1821;50.936;6.854;2023-07-16T00:46:59;19.50;99.90
3614;DHT22;1821;50.936;6.854;2023-07-16T00:47:42;19.40;99.90
3614;DHT22;1821;50.936;6.854;2023-07-16T00:48:25;19.40;99.90
3614;DHT22;1821;50.936;6.854;2023-07-16T00:49:07;19.40;99.90
3614;DHT22;1821;50.936;6.854;2023-07-16T00:49:49;19.40;99.90
3614;DHT22;1821;50.936;6.854;2023-07-16T00:50:35;19.40;99.90
3614;DHT22;1821;50.936;6.854;2023-07-16T00:51:21;19.40;99.90
3614;DHT22;1821;50.936;6.854;2023-07-16T00:52:05;19.30;99.90
3614;DHT22;1821;50.936;6.854;2023-07-16T00:52:49;19.30;99.90
3614;DHT22;1821;50.936;6.854;2023-07-16T00:53:32;19.30;99.90
3614;DHT22;1821;50.936;6.854;2023-07-16T00:54:14;19.30;99.90
3614;DHT22;1821;50.936;6.854;2023-07-16T00:54:56;19.30;99.90
3614;DHT22;1821;50.936;6.854;2023-07-16T00:55:38;19.30;99.90
3614;DHT22;1821;50.936;6.854;2023-07-16T00:56:21;19.30;99.90
3614;DHT22;1821;50.936;6.854;2023-07-16T00:57:04;19.20;99.90
3614;DHT22;1821;50.936;6.854;2023-07-16T00:57:47;19.30;99.90
3614;DHT22;1821;50.936;6.854;2023-07-16T00:58:29;19.30;99.90
3614;DHT22;1821;50.936;6.854;2023-07-16T00:59:11;19.30;99.90
3614;DHT22;1821;50.936;6.854;2023-07-16T00:59:55;19.20;99.90
3614;DHT22;1821;50.936;6.854;2023-07-16T01:00:40;19.20;99.90
3614;DHT22;1821;50.936;6.854;2023-07-16T01:01:22;19.20;99.90
3614;DHT22;1821;50.936;6.854;2023-07-16T01:02:05;19.20;99.90
3614;DHT22;1821;50.936;6.854;2023-07-16T01:02:49;19.10;99.90
3614;DHT22;1821;50.936;6.854;2023-07-16T01:03:31;19.20;99.90
3614;DHT22;1821;50.936;6.854;2023-07-16T01:04:13;19.30;99.90
3614;DHT22;1821;50.936;6.854;2023-07-16T01:04:55;19.20;99.90
3614;DHT22;1821;50.936;6.854;2023-07-16T01:06:39;19.20;99.90
3614;DHT22;1821;50.936;6.854;2023-07-16T01:07:27;19.20;99.90
3614;DHT22;1821;50.936;6.854;2023-07-16T01:08:10;19.20;99.90
3614;DHT22;1821;50.936;6.854;2023-07-16T01:09:53;19.10;99.90
3614;DHT22;1821;50.936;6.854;2023-07-16T01:10:38;19.10;99.90
3614;DHT22;1821;50.936;6.854;2023-07-16T01:11:21;19.10;99.90
3614;DHT22;1821;50.936;6.854;2023-07-16T01:12:05;19.20;99.90
3614;DHT22;1821;50.936;6.854;2023-07-16T01:12:50;19.10;99.90
3614;DHT22;1821;50.936;6.854;2023-07-16T01:13:34;19.00;99.90
3614;DHT22;1821;50.936;6.854;2023-07-16T01:14:17;19.00;99.90
3614;DHT22;1821;50.936;6.854;2023-07-16T01:15:00;19.00;99.90
3614;DHT22;1821;50.936;6.854;2023-07-16T01:15:44;19.10;99.90
3614;DHT22;1821;50.936;6.854;2023-07-16T01:16:27;19.00;99.90
3614;DHT22;1821;50.936;6.854;2023-07-16T01:17:09;19.10;99.90
3614;DHT22;1821;50.936;6.854;2023-07-16T01:17:50;19.00;99.90
3614;DHT22;1821;50.936;6.854;2023-07-16T01:18:33;19.10;99.90
3614;DHT22;1821;50.936;6.854;2023-07-16T01:19:17;19.00;99.90
3614;DHT22;1821;50.936;6.854;2023-07-16T01:19:59;19.00;99.90
3614;DHT22;1821;50.936;6.854;2023-07-16T01:20:41;19.00;99.90
3614;DHT22;1821;50.936;6.854;2023-07-16T01:21:24;18.90;99.90
3614;DHT22;1821;50.936;6.854;2023-07-16T01:24:48;19.00;99.90
3614;DHT22;1821;50.936;6.854;2023-07-16T01:26:08;19.00;99.90
3614;DHT22;1821;50.936;6.854;2023-07-16T01:30:02;19.00;99.90
3614;DHT22;1821;50.936;6.854;2023-07-16T01:30:45;18.90;99.90
3614;DHT22;1821;50.936;6.854;2023-07-16T01:31:29;18.90;99.90
3614;DHT22;1821;50.936;6.854;2023-07-16T01:32:12;18.90;99.90
3614;DHT22;1821;50.936;6.854;2023-07-16T01:32:55;18.90;99.90
3614;DHT22;1821;50.936;6.854;2023-07-16T01:33:40;18.90;99.90
3614;DHT22;1821;50.936;6.854;2023-07-16T01:34:24;18.60;99.90
3614;DHT22;1821;50.936;6.854;2023-07-16T01:35:08;18.80;99.90
3614;DHT22;1821;50.936;6.854;2023-07-16T01:35:51;18.80;99.90
3614;DHT22;1821;50.936;6.854;2023-07-16T01:36:34;18.80;99.90
3614;DHT22;1821;50.936;6.854;2023-07-16T01:37:18;18.80;99.90
3614;DHT22;1821;50.936;6.854;2023-07-16T01:38:02;18.80;99.90
3614;DHT22;1821;50.936;6.854;2023-07-16T01:38:45;18.90;99.90
3614;DHT22;1821;50.936;6.854;2023-07-16T01:39:27;18.90;99.90
3614;DHT22;1821;50.936;6.854;2023-07-16T01:40:09;18.80;99.90
3614;DHT22;1821;50.936;6.854;2023-07-16T01:40:51;18.70;99.90
3614;DHT22;1821;50.936;6.854;2023-07-16T01:41:33;18.90;99.90
3614;DHT22;1821;50.936;6.854;2023-07-16T01:42:15;18.80;99.90
3614;DHT22;1821;50.936;6.854;2023-07-16T01:42:59;18.80;99.90
3614;DHT22;1821;50.936;6.854;2023-07-16T01:43:41;18.80;99.90
3614;DHT22;1821;50.936;6.854;2023-07-16T01:44:23;18.80;99.90
3614;DHT22;1821;50.936;6.854;2023-07-16T01:45:05;18.60;99.90
3614;DHT22;1821;50.936;6.854;2023-07-16T01:45:48;18.60;99.90
3614;DHT22;1821;50.936;6.854;2023-07-16T01:46:30;18.80;99.90
3614;DHT22;1821;50.936;6.854;2023-07-16T01:47:14;18.70;99.90
3614;DHT22;1821;50.936;6.854;2023-07-16T01:49:06;18.70;99.90
3614;DHT22;1821;50.936;6.854;2023-07-16T01:49:48;18.60;99.90
3614;DHT22;1821;50.936;6.854;2023-07-16T01:50:30;18.60;99.90
3614;DHT22;1821;50.936;6.854;2023-07-16T01:51:14;18.60;99.90
3614;DHT22;1821;50.936;6.854;2023-07-16T01:51:56;18.60;99.90
3614;DHT22;1821;50.936;6.854;2023-07-16T01:52:38;18.60;99.90
3614;DHT22;1821;50.936;6.854;2023-07-16T01:53:20;18.60;99.90
3614;DHT22;1821;50.936;6.854;2023-07-16T01:54:04;18.60;99.90
3614;DHT22;1821;50.936;6.854;2023-07-16T01:54:46;18.50;99.90
3614;DHT22;1821;50.936;6.854;2023-07-16T01:55:29;18.70;99.90
3614;DHT22;1821;50.936;6.854;2023-07-16T01:56:12;18.50;99.90
3614;DHT22;1821;50.936;6.854;2023-07-16T01:56:54;18.60;99.90
3614;DHT22;1821;50.936;6.854;2023-07-16T01:57:36;18.60;99.90
3614;DHT22;1821;50.936;6.854;2023-07-16T01:58:18;18.60;99.90
3614;DHT22;1821;50.936;6.854;2023-07-16T01:59:00;18.60;99.90
3614;DHT22;1821;50.936;6.854;2023-07-16T01:59:44;18.60;99.90
3614;DHT22;1821;50.936;6.854;2023-07-16T02:00:27;18.60;99.90
3614;DHT22;1821;50.936;6.854;2023-07-16T02:01:09;18.50;99.90
3614;DHT22;1821;50.936;6.854;2023-07-16T02:01:51;18.60;99.90
3614;DHT22;1821;50.936;6.854;2023-07-16T02:02:34;18.60;99.90
3614;DHT22;1821;50.936;6.854;2023-07-16T02:03:16;18.60;99.90
3614;DHT22;1821;50.936;6.854;2023-07-16T02:03:58;18.50;99.90
3614;DHT22;1821;50.936;6.854;2023-07-16T02:04:42;18.50;99.90
3614;DHT22;1821;50.936;6.854;2023-07-16T02:05:24;18.70;99.90
3614;DHT22;1821;50.936;6.854;2023-07-16T02:06:06;18.50;99.90
3614;DHT22;1821;50.936;6.854;2023-07-16T02:06:48;18.50;99.90
3614;DHT22;1821;50.936;6.854;2023-07-16T02:07:30;18.80;99.90
3614;DHT22;1821;50.936;6.854;2023-07-16T02:08:14;18.40;99.90
3614;DHT22;1821;50.936;6.854;2023-07-16T02:08:56;18.30;99.90
3614;DHT22;1821;50.936;6.854;2023-07-16T02:09:38;18.40;99.90
3614;DHT22;1821;50.936;6.854;2023-07-16T02:10:22;18.50;99.90
3614;DHT22;1821;50.936;6.854;2023-07-16T02:11:04;18.40;99.90
3614;DHT22;1821;50.936;6.854;2023-07-16T02:11:46;20.00;99.90
3614;DHT22;1821;50.936;6.854;2023-07-16T02:12:28;18.50;99.90
3614;DHT22;1821;50.936;6.854;2023-07-16T02:13:10;18.40;99.90
3614;DHT22;1821;50.936;6.854;2023-07-16T02:13:52;18.40;99.90
3614;DHT22;1821;50.936;6.854;2023-07-16T02:14:34;18.30;99.90
3614;DHT22;1821;50.936;6.854;2023-07-16T02:15:16;18.40;99.90
3614;DHT22;1821;50.936;6.854;2023-07-16T02:15:59;18.40;99.90
3614;DHT22;1821;50.936;6.854;2023-07-16T02:16:41;18.30;99.90
3614;DHT22;1821;50.936;6.854;2023-07-16T02:17:24;18.40;99.90
3614;DHT22;1821;50.936;6.854;2023-07-16T02:18:06;18.30;99.90
3614;DHT22;1821;50.936;6.854;2023-07-16T02:18:47;18.30;99.90
3614;DHT22;1821;50.936;6.854;2023-07-16T02:19:29;18.30;99.90
3614;DHT22;1821;50.936;6.854;2023-07-16T02:20:11;18.30;99.90
3614;DHT22;1821;50.936;6.854;2023-07-16T02:20:53;18.30;99.90
3614;DHT22;1821;50.936;6.854;2023-07-16T02:21:35;18.30;99.90
3614;DHT22;1821;50.936;6.854;2023-07-16T02:22:17;18.50;99.90
3614;DHT22;1821;50.936;6.854;2023-07-16T02:23:00;18.30;99.90
3614;DHT22;1821;50.936;6.854;2023-07-16T02:23:41;18.10;99.90
3614;DHT22;1821;50.936;6.854;2023-07-16T02:24:23;18.30;99.90
3614;DHT22;1821;50.936;6.854;2023-07-16T02:25:05;18.30;99.90
3614;DHT22;1821;50.936;6.854;2023-07-16T02:25:47;18.20;99.90
3614;DHT22;1821;50.936;6.854;2023-07-16T02:26:29;18.20;99.90
3614;DHT22;1821;50.936;6.854;2023-07-16T02:27:11;18.20;99.90
3614;DHT22;1821;50.936;6.854;2023-07-16T02:27:53;18.20;99.90
3614;DHT22;1821;50.936;6.854;2023-07-16T02:28:35;18.20;99.90
3614;DHT22;1821;50.936;6.854;2023-07-16T02:29:19;15.50;99.90
3614;DHT22;1821;50.936;6.854;2023-07-16T02:30:01;18.30;99.90
3614;DHT22;1821;50.936;6.854;2023-07-16T02:30:43;18.20;99.90
3614;DHT22;1821;50.936;6.854;2023-07-16T02:31:25;18.20;99.90
3614;DHT22;1821;50.936;6.854;2023-07-16T02:32:07;18.20;99.90
3614;DHT22;1821;50.936;6.854;2023-07-16T02:32:49;18.20;99.90
3614;DHT22;1821;50.936;6.854;2023-07-16T02:33:31;18.20;99.90
3614;DHT22;1821;50.936;6.854;2023-07-16T02:34:14;18.20;99.90
3614;DHT22;1821;50.936;6.854;2023-07-16T02:34:56;18.20;99.90
3614;DHT22;1821;50.936;6.854;2023-07-16T02:35:37;18.10;99.90
3614;DHT22;1821;50.936;6.854;2023-07-16T02:36:19;18.20;99.90
3614;DHT22;1821;50.936;6.854;2023-07-16T02:37:01;18.10;99.90
3614;DHT22;1821;50.936;6.854;2023-07-16T02:37:43;18.20;99.90
3614;DHT22;1821;50.936;6.854;2023-07-16T02:38:25;18.20;99.90
3614;DHT22;1821;50.936;6.854;2023-07-16T02:39:07;18.10;99.90
3614;DHT22;1821;50.936;6.854;2023-07-16T02:39:49;18.10;99.90
3614;DHT22;1821;50.936;6.854;2023-07-16T02:40:31;18.20;99.90
3614;DHT22;1821;50.936;6.854;2023-07-16T02:41:13;18.10;99.90
3614;DHT22;1821;50.936;6.854;2023-07-16T02:41:55;18.10;99.90
3614;DHT22;1821;50.936;6.854;2023-07-16T02:42:39;18.10;99.90
3614;DHT22;1821;50.936;6.854;2023-07-16T02:43:21;18.10;99.90
3614;DHT22;1821;50.936;6.854;2023-07-16T02:44:05;18.10;99.90
3614;DHT22;1821;50.936;6.854;2023-07-16T02:44:50;18.10;99.90
3614;DHT22;1821;50.936;6.854;2023-07-16T02:45:31;18.10;99.90
3614;DHT22;1821;50.936;6.854;2023-07-16T02:46:14;18.20;99.90
3614;DHT22;1821;50.936;6.854;2023-07-16T02:46:56;18.10;99.90
3614;DHT22;1821;50.936;6.854;2023-07-16T02:47:38;18.20;99.90
3614;DHT22;1821;50.936;6.854;2023-07-16T02:48:20;18.00;99.90
3614;DHT22;1821;50.936;6.854;2023-07-16T02:49:03;18.10;99.90
3614;DHT22;1821;50.936;6.854;2023-07-16T02:49:45;18.00;99.90
3614;DHT22;1821;50.936;6.854;2023-07-16T02:50:31;18.10;99.90
3614;DHT22;1821;50.936;6.854;2023-07-16T02:51:14;18.10;99.90
3614;DHT22;1821;50.936;6.854;2023-07-16T02:51:56;18.10;99.90
3614;DHT22;1821;50.936;6.854;2023-07-16T02:52:39;18.00;99.90
3614;DHT22;1821;50.936;6.854;2023-07-16T02:53:20;18.10;99.90
3614;DHT22;1821;50.936;6.854;2023-07-16T02:54:04;18.30;99.90
3614;DHT22;1821;50.936;6.854;2023-07-16T02:54:46;18.00;99.90
3614;DHT22;1821;50.936;6.854;2023-07-16T02:55:29;18.10;99.90
3614;DHT22;1821;50.936;6.854;2023-07-16T02:56:11;18.00;99.90
3614;DHT22;1821;50.936;6.854;2023-07-16T02:56:52;18.00;99.90
3614;DHT22;1821;50.936;6.854;2023-07-16T02:57:34;18.00;99.90
3614;DHT22;1821;50.936;6.854;2023-07-16T02:58:16;18.10;99.90
3614;DHT22;1821;50.936;6.854;2023-07-16T02:58:58;18.00;99.90
3614;DHT22;1821;50.936;6.854;2023-07-16T02:59:40;18.00;99.90
3614;DHT22;1821;50.936;6.854;2023-07-16T03:00:25;18.10;99.90
3614;DHT22;1821;50.936;6.854;2023-07-16T03:01:07;18.00;99.90
3614;DHT22;1821;50.936;6.854;2023-07-16T03:01:50;18.00;99.90
3614;DHT22;1821;50.936;6.854;2023-07-16T03:02:35;17.90;99.90
3614;DHT22;1821;50.936;6.854;2023-07-16T03:03:17;18.00;99.90
3614;DHT22;1821;50.936;6.854;2023-07-16T03:03:59;18.10;99.90
3614;DHT22;1821;50.936;6.854;2023-07-16T03:04:41;18.00;99.90
3614;DHT22;1821;50.936;6.854;2023-07-16T03:06:10;18.20;99.90
3614;DHT22;1821;50.936;6.854;2023-07-16T03:06:55;18.10;99.90
3614;DHT22;1821;50.936;6.854;2023-07-16T03:07:37;18.10;99.90
3614;DHT22;1821;50.936;6.854;2023-07-16T03:08:19;18.10;99.90
3614;DHT22;1821;50.936;6.854;2023-07-16T03:09:01;18.10;99.90
3614;DHT22;1821;50.936;6.854;2023-07-16T03:09:44;18.10;99.90
3614;DHT22;1821;50.936;6.854;2023-07-16T03:10:25;18.10;99.90
3614;DHT22;1821;50.936;6.854;2023-07-16T03:11:08;18.00;99.90
3614;DHT22;1821;50.936;6.854;2023-07-16T03:11:52;18.10;99.90
3614;DHT22;1821;50.936;6.854;2023-07-16T03:12:35;18.00;99.90
3614;DHT22;1821;50.936;6.854;2023-07-16T03:13:17;18.10;99.90
3614;DHT22;1821;50.936;6.854;2023-07-16T03:13:59;18.00;99.90
3614;DHT22;1821;50.936;6.854;2023-07-16T03:14:40;18.00;99.90
3614;DHT22;1821;50.936;6.854;2023-07-16T03:15:22;18.10;99.90
3614;DHT22;1821;50.936;6.854;2023-07-16T03:16:04;18.10;99.90
3614;DHT22;1821;50.936;6.854;2023-07-16T03:16:46;18.10;99.90
3614;DHT22;1821;50.936;6.854;2023-07-16T03:17:28;18.10;99.90
3614;DHT22;1821;50.936;6.854;2023-07-16T03:18:10;18.10;99.90
3614;DHT22;1821;50.936;6.854;2023-07-16T03:18:53;18.00;99.90
3614;DHT22;1821;50.936;6.854;2023-07-16T03:20:17;18.10;99.90
3614;DHT22;1821;50.936;6.854;2023-07-16T03:21:41;17.70;99.90
3614;DHT22;1821;50.936;6.854;2023-07-16T03:22:24;17.90;99.90
3614;DHT22;1821;50.936;6.854;2023-07-16T03:23:06;17.90;99.90
3614;DHT22;1821;50.936;6.854;2023-07-16T03:23:48;17.80;99.90
3614;DHT22;1821;50.936;6.854;2023-07-16T03:24:30;17.80;99.90
3614;DHT22;1821;50.936;6.854;2023-07-16T03:25:12;17.80;99.90
3614;DHT22;1821;50.936;6.854;2023-07-16T03:25:54;17.80;99.90
3614;DHT22;1821;50.936;6.854;2023-07-16T03:26:36;17.80;99.90
3614;DHT22;1821;50.936;6.854;2023-07-16T03:27:20;17.90;99.90
3614;DHT22;1821;50.936;6.854;2023-07-16T03:28:04;17.80;99.90
3614;DHT22;1821;50.936;6.854;2023-07-16T03:28:46;17.80;99.90
3614;DHT22;1821;50.936;6.854;2023-07-16T03:29:28;17.80;99.90
3614;DHT22;1821;50.936;6.854;2023-07-16T03:30:10;17.80;99.90
3614;DHT22;1821;50.936;6.854;2023-07-16T03:30:52;17.80;99.90
3614;DHT22;1821;50.936;6.854;2023-07-16T03:31:38;17.80;99.90
3614;DHT22;1821;50.936;6.854;2023-07-16T03:32:20;17.70;99.90
3614;DHT22;1821;50.936;6.854;2023-07-16T03:33:03;17.70;99.90
3614;DHT22;1821;50.936;6.854;2023-07-16T03:33:48;17.80;99.90
3614;DHT22;1821;50.936;6.854;2023-07-16T03:34:30;17.80;99.90
3614;DHT22;1821;50.936;6.854;2023-07-16T03:35:12;17.90;99.90
3614;DHT22;1821;50.936;6.854;2023-07-16T03:35:54;17.80;99.90
3614;DHT22;1821;50.936;6.854;2023-07-16T03:36:36;17.60;99.90
3614;DHT22;1821;50.936;6.854;2023-07-16T03:37:20;17.80;99.90
3614;DHT22;1821;50.936;6.854;2023-07-16T03:38:04;17.80;99.90
3614;DHT22;1821;50.936;6.854;2023-07-16T03:38:46;17.60;99.90
3614;DHT22;1821;50.936;6.854;2023-07-16T03:39:28;17.60;99.90
3614;DHT22;1821;50.936;6.854;2023-07-16T03:40:18;17.60;99.90
3614;DHT22;1821;50.936;6.854;2023-07-16T03:41:00;17.60;99.90
3614;DHT22;1821;50.936;6.854;2023-07-16T03:41:42;17.60;99.90
3614;DHT22;1821;50.936;6.854;2023-07-16T03:42:24;17.60;99.90
3614;DHT22;1821;50.936;6.854;2023-07-16T03:43:07;17.60;99.90
3614;DHT22;1821;50.936;6.854;2023-07-16T03:43:49;17.70;99.90
3614;DHT22;1821;50.936;6.854;2023-07-16T03:44:31;17.80;99.90
3614;DHT22;1821;50.936;6.854;2023-07-16T03:45:13;17.70;99.90
3614;DHT22;1821;50.936;6.854;2023-07-16T03:45:56;17.70;99.90
3614;DHT22;1821;50.936;6.854;2023-07-16T03:46:38;17.70;99.90
3614;DHT22;1821;50.936;6.854;2023-07-16T03:47:20;17.60;99.90
3614;DHT22;1821;50.936;6.854;2023-07-16T03:48:02;17.50;99.90
3614;DHT22;1821;50.936;6.854;2023-07-16T03:48:47;17.60;99.90
3614;DHT22;1821;50.936;6.854;2023-07-16T03:49:29;17.60;99.90
3614;DHT22;1821;50.936;6.854;2023-07-16T03:50:13;17.50;99.90
3614;DHT22;1821;50.936;6.854;2023-07-16T03:50:55;17.60;99.90
3614;DHT22;1821;50.936;6.854;2023-07-16T03:52:19;17.70;99.90
3614;DHT22;1821;50.936;6.854;2023-07-16T03:53:01;17.60;99.90
3614;DHT22;1821;50.936;6.854;2023-07-16T03:53:47;17.50;99.90
3614;DHT22;1821;50.936;6.854;2023-07-16T03:54:29;17.60;99.90
3614;DHT22;1821;50.936;6.854;2023-07-16T03:55:11;17.60;99.90
3614;DHT22;1821;50.936;6.854;2023-07-16T03:55:55;17.50;99.90
3614;DHT22;1821;50.936;6.854;2023-07-16T03:56:37;17.60;99.90
3614;DHT22;1821;50.936;6.854;2023-07-16T03:57:19;17.50;99.90
3614;DHT22;1821;50.936;6.854;2023-07-16T03:58:01;17.50;99.90
3614;DHT22;1821;50.936;6.854;2023-07-16T03:58:45;17.50;99.90
3614;DHT22;1821;50.936;6.854;2023-07-16T03:59:27;17.50;99.90
3614;DHT22;1821;50.936;6.854;2023-07-16T04:00:09;17.50;99.90
3614;DHT22;1821;50.936;6.854;2023-07-16T04:00:51;17.40;99.90
3614;DHT22;1821;50.936;6.854;2023-07-16T04:01:34;17.30;99.90
3614;DHT22;1821;50.936;6.854;2023-07-16T04:02:16;17.50;99.90
3614;DHT22;1821;50.936;6.854;2023-07-16T04:02:58;17.40;99.90
3614;DHT22;1821;50.936;6.854;2023-07-16T04:03:40;17.40;99.90
3614;DHT22;1821;50.936;6.854;2023-07-16T04:04:22;17.50;99.90
3614;DHT22;1821;50.936;6.854;2023-07-16T04:05:04;17.50;99.90
3614;DHT22;1821;50.936;6.854;2023-07-16T04:05:46;17.40;99.90
3614;DHT22;1821;50.936;6.854;2023-07-16T04:06:28;17.40;99.90
3614;DHT22;1821;50.936;6.854;2023-07-16T04:07:10;17.70;99.90
3614;DHT22;1821;50.936;6.854;2023-07-16T04:07:52;17.40;99.90
3614;DHT22;1821;50.936;6.854;2023-07-16T04:08:37;17.40;99.90
3614;DHT22;1821;50.936;6.854;2023-07-16T04:09:19;17.40;99.90
3614;DHT22;1821;50.936;6.854;2023-07-16T04:10:01;17.20;99.90
3614;DHT22;1821;50.936;6.854;2023-07-16T04:10:43;17.40;99.90
3614;DHT22;1821;50.936;6.854;2023-07-16T04:11:25;17.50;99.90
3614;DHT22;1821;50.936;6.854;2023-07-16T04:12:08;17.50;99.90
3614;DHT22;1821;50.936;6.854;2023-07-16T04:12:50;17.30;99.90
3614;DHT22;1821;50.936;6.854;2023-07-16T04:13:32;17.30;99.90
3614;DHT22;1821;50.936;6.854;2023-07-16T04:14:14;17.40;99.90
3614;DHT22;1821;50.936;6.854;2023-07-16T04:14:58;17.40;99.90
3614;DHT22;1821;50.936;6.854;2023-07-16T04:15:47;17.30;99.90
3614;DHT22;1821;50.936;6.854;2023-07-16T04:16:29;17.50;99.90
3614;DHT22;1821;50.936;6.854;2023-07-16T04:17:11;17.40;99.90
3614;DHT22;1821;50.936;6.854;2023-07-16T04:17:53;17.50;99.90
3614;DHT22;1821;50.936;6.854;2023-07-16T04:18:35;17.50;99.90
3614;DHT22;1821;50.936;6.854;2023-07-16T04:19:17;17.20;99.90
3614;DHT22;1821;50.936;6.854;2023-07-16T04:19:59;17.50;99.90
3614;DHT22;1821;50.936;6.854;2023-07-16T04:20:41;17.50;99.90
3614;DHT22;1821;50.936;6.854;2023-07-16T04:21:25;17.30;99.90
3614;DHT22;1821;50.936;6.854;2023-07-16T04:22:07;16.70;99.90
3614;DHT22;1821;50.936;6.854;2023-07-16T04:22:49;17.40;99.90
3614;DHT22;1821;50.936;6.854;2023-07-16T04:23:31;17.50;99.90
3614;DHT22;1821;50.936;6.854;2023-07-16T04:24:15;17.50;99.90
3614;DHT22;1821;50.936;6.854;2023-07-16T04:24:57;17.50;99.90
3614;DHT22;1821;50.936;6.854;2023-07-16T04:25:40;17.50;99.90
3614;DHT22;1821;50.936;6.854;2023-07-16T04:26:22;17.80;99.90
3614;DHT22;1821;50.936;6.854;2023-07-16T04:27:04;17.70;99.90
3614;DHT22;1821;50.936;6.854;2023-07-16T04:27:46;17.60;99.90
3614;DHT22;1821;50.936;6.854;2023-07-16T04:28:28;17.50;99.90
3614;DHT22;1821;50.936;6.854;2023-07-16T04:29:10;17.50;99.90
3614;DHT22;1821;50.936;6.854;2023-07-16T04:29:54;17.60;99.90
3614;DHT22;1821;50.936;6.854;2023-07-16T04:30:36;17.50;99.90
3614;DHT22;1821;50.936;6.854;2023-07-16T04:31:21;17.70;99.90
3614;DHT22;1821;50.936;6.854;2023-07-16T04:32:04;17.60;99.90
3614;DHT22;1821;50.936;6.854;2023-07-16T04:32:46;17.60;99.90
3614;DHT22;1821;50.936;6.854;2023-07-16T04:33:28;17.50;99.90
3614;DHT22;1821;50.936;6.854;2023-07-16T04:34:10;17.50;99.90
3614;DHT22;1821;50.936;6.854;2023-07-16T04:34:52;17.70;99.90
3614;DHT22;1821;50.936;6.854;2023-07-16T04:35:34;17.60;99.90
3614;DHT22;1821;50.936;6.854;2023-07-16T04:36:16;17.60;99.90
3614;DHT22;1821;50.936;6.854;2023-07-16T04:36:59;17.80;99.90
3614;DHT22;1821;50.936;6.854;2023-07-16T04:37:40;17.70;99.90
3614;DHT22;1821;50.936;6.854;2023-07-16T04:38:23;17.80;99.90
3614;DHT22;1821;50.936;6.854;2023-07-16T04:39:05;17.80;99.90
3614;DHT22;1821;50.936;6.854;2023-07-16T04:39:50;17.90;99.90
3614;DHT22;1821;50.936;6.854;2023-07-16T04:40:34;17.80;99.90
3614;DHT22;1821;50.936;6.854;2023-07-16T04:41:17;17.90;99.90
3614;DHT22;1821;50.936;6.854;2023-07-16T04:42:01;17.80;99.90
3614;DHT22;1821;50.936;6.854;2023-07-16T04:42:43;17.90;99.90
3614;DHT22;1821;50.936;6.854;2023-07-16T04:43:25;18.10;99.90
3614;DHT22;1821;50.936;6.854;2023-07-16T04:44:07;17.90;99.90
3614;DHT22;1821;50.936;6.854;2023-07-16T04:44:49;17.90;99.90
3614;DHT22;1821;50.936;6.854;2023-07-16T04:45:31;17.90;99.90
3614;DHT22;1821;50.936;6.854;2023-07-16T04:46:13;17.90;99.90
3614;DHT22;1821;50.936;6.854;2023-07-16T04:47:00;17.20;99.90
3614;DHT22;1821;50.936;6.854;2023-07-16T04:47:44;17.90;99.90
3614;DHT22;1821;50.936;6.854;2023-07-16T04:48:27;17.90;99.90
3614;DHT22;1821;50.936;6.854;2023-07-16T04:49:09;17.90;99.90
3614;DHT22;1821;50.936;6.854;2023-07-16T04:49:51;18.10;99.90
3614;DHT22;1821;50.936;6.854;2023-07-16T04:50:33;18.10;99.90